AFL1233 URWW-UWKD
Flight info
| Callsign | AFL1233 |
|---|---|
| Flight time | 1h 38m |
| Altitude | 37000 |
| Route | RODUN1E RODUN R807 UROBO P135 DAFOS T789 SONUM SONUM1R |
| Aircraft | B738/M-SDE2E3FGHIRWXY/LB1 |
Departure
| Time | 2026-05-07 17:48 |
|---|---|
| Airport | Volgograd International Airport (URWW) |
Arrival
| Time | 2026-05-07 19:27 |
|---|---|
| Airport | Kazan International Airport (UWKD) |
| Time | Latitude | Longitude | Altitude | Speed | Heading |
|---|---|---|---|---|---|
| 2026-05-07 17:17 | 48.79042 | 44.35392 | 472 ft | 0 kts | 339° |
| 2026-05-07 17:31 | 48.79034 | 44.35397 | 471 ft | 2 kts | 339° |
| 2026-05-07 17:31 | 48.79019 | 44.35406 | 471 ft | 3 kts | 339° |
| 2026-05-07 17:32 | 48.78999 | 44.35417 | 471 ft | 3 kts | 326° |
| 2026-05-07 17:32 | 48.78995 | 44.35428 | 470 ft | 0 kts | 251° |
| 2026-05-07 17:34 | 48.78993 | 44.35422 | 471 ft | 2 kts | 251° |
| 2026-05-07 17:34 | 48.78983 | 44.35376 | 472 ft | 7 kts | 251° |
| 2026-05-07 17:34 | 48.78961 | 44.35282 | 472 ft | 12 kts | 249° |
| 2026-05-07 17:34 | 48.78926 | 44.35143 | 473 ft | 16 kts | 248° |
| 2026-05-07 17:35 | 48.78828 | 44.35137 | 471 ft | 16 kts | 162° |
| 2026-05-07 17:35 | 48.78789 | 44.35156 | 472 ft | 0 kts | 162° |
| 2026-05-07 17:36 | 48.78787 | 44.35157 | 472 ft | 1 kts | 162° |
| 2026-05-07 17:36 | 48.78757 | 44.35171 | 471 ft | 8 kts | 162° |
| 2026-05-07 17:37 | 48.78730 | 44.35185 | 458 ft | 0 kts | 161° |
| 2026-05-07 17:40 | 48.78726 | 44.35187 | 474 ft | 2 kts | 161° |
| 2026-05-07 17:40 | 48.78721 | 44.35189 | 469 ft | 0 kts | 161° |
| 2026-05-07 17:44 | 48.78710 | 44.35195 | 470 ft | 0 kts | 161° |
| 2026-05-07 17:45 | 48.78701 | 44.35199 | 470 ft | 4 kts | 161° |
| 2026-05-07 17:46 | 48.78653 | 44.35224 | 475 ft | 10 kts | 161° |
| 2026-05-07 17:46 | 48.78565 | 44.35226 | 474 ft | 17 kts | 213° |
| 2026-05-07 17:46 | 48.78534 | 44.35159 | 472 ft | 0 kts | 244° |
| 2026-05-07 17:46 | 48.78533 | 44.35155 | 472 ft | 0 kts | 244° |
| 2026-05-07 17:47 | 48.78532 | 44.35151 | 471 ft | 1 kts | 244° |
| 2026-05-07 17:47 | 48.78523 | 44.35124 | 471 ft | 7 kts | 244° |
| 2026-05-07 17:48 | 48.78441 | 44.34864 | 465 ft | 61 kts | 244° |
| 2026-05-07 17:48 | 48.78152 | 44.33954 | 458 ft | 127 kts | 244° |
| 2026-05-07 17:48 | 48.77690 | 44.32503 | 480 ft | 177 kts | 244° |
| 2026-05-07 17:48 | 48.77157 | 44.30839 | 1199 ft | 168 kts | 245° |
| 2026-05-07 17:49 | 48.76645 | 44.29294 | 2046 ft | 163 kts | 246° |
| 2026-05-07 17:49 | 48.76114 | 44.27657 | 2509 ft | 186 kts | 248° |
| 2026-05-07 17:49 | 48.75535 | 44.25804 | 3032 ft | 202 kts | 247° |
| 2026-05-07 17:49 | 48.74905 | 44.23784 | 3384 ft | 221 kts | 249° |
| 2026-05-07 17:50 | 48.74550 | 44.21438 | 3611 ft | 238 kts | 278° |
| 2026-05-07 17:50 | 48.75168 | 44.19118 | 4123 ft | 246 kts | 310° |
| 2026-05-07 17:50 | 48.76624 | 44.17592 | 4398 ft | 269 kts | 345° |
| 2026-05-07 17:50 | 48.78483 | 44.17541 | 5303 ft | 266 kts | 14° |
| 2026-05-07 17:51 | 48.80115 | 44.18722 | 6440 ft | 260 kts | 31° |
| 2026-05-07 17:51 | 48.81586 | 44.20273 | 7266 ft | 262 kts | 34° |
| 2026-05-07 17:51 | 48.83065 | 44.21926 | 8080 ft | 263 kts | 34° |
| 2026-05-07 17:51 | 48.84519 | 44.23564 | 9034 ft | 260 kts | 34° |
| 2026-05-07 17:52 | 48.86019 | 44.25225 | 9604 ft | 272 kts | 34° |
| 2026-05-07 17:52 | 48.87550 | 44.26904 | 10295 ft | 277 kts | 34° |
| 2026-05-07 17:52 | 48.89178 | 44.28679 | 10550 ft | 299 kts | 34° |
| 2026-05-07 17:52 | 48.90941 | 44.30592 | 10736 ft | 322 kts | 34° |
| 2026-05-07 17:53 | 48.92832 | 44.32639 | 10915 ft | 343 kts | 34° |
| 2026-05-07 17:53 | 48.94808 | 44.34776 | 11374 ft | 353 kts | 34° |
| 2026-05-07 17:53 | 48.96824 | 44.36955 | 12056 ft | 356 kts | 34° |
| 2026-05-07 17:53 | 48.98846 | 44.39141 | 12802 ft | 357 kts | 34° |
| 2026-05-07 17:54 | 49.00858 | 44.41316 | 13509 ft | 360 kts | 34° |
| 2026-05-07 17:54 | 49.02912 | 44.43535 | 14154 ft | 363 kts | 34° |
| 2026-05-07 17:54 | 49.04988 | 44.45780 | 14673 ft | 369 kts | 34° |
| 2026-05-07 17:54 | 49.07095 | 44.48061 | 15255 ft | 372 kts | 34° |
| 2026-05-07 17:55 | 49.09328 | 44.50078 | 15852 ft | 374 kts | 24° |
| 2026-05-07 17:55 | 49.11738 | 44.51597 | 16457 ft | 377 kts | 21° |
| 2026-05-07 17:55 | 49.14200 | 44.53020 | 16968 ft | 382 kts | 20° |
| 2026-05-07 17:55 | 49.16711 | 44.54439 | 17507 ft | 386 kts | 20° |
| 2026-05-07 17:56 | 49.19231 | 44.55855 | 18133 ft | 387 kts | 20° |
| 2026-05-07 17:56 | 49.21769 | 44.57275 | 18649 ft | 390 kts | 20° |
| 2026-05-07 17:56 | 49.24335 | 44.58709 | 19131 ft | 393 kts | 20° |
| 2026-05-07 17:56 | 49.26920 | 44.60152 | 19607 ft | 397 kts | 20° |
| 2026-05-07 17:57 | 49.29492 | 44.61587 | 20064 ft | 400 kts | 20° |
| 2026-05-07 17:57 | 49.31263 | 44.62577 | 20387 ft | 402 kts | 20° |
| 2026-05-07 17:57 | 49.34765 | 44.64534 | 21014 ft | 405 kts | 20° |
| 2026-05-07 17:57 | 49.37429 | 44.66021 | 21472 ft | 408 kts | 20° |
| 2026-05-07 17:58 | 49.40109 | 44.67516 | 21915 ft | 411 kts | 20° |
| 2026-05-07 17:58 | 49.42807 | 44.69020 | 22358 ft | 414 kts | 20° |
| 2026-05-07 17:58 | 49.45524 | 44.70532 | 22788 ft | 416 kts | 20° |
| 2026-05-07 17:58 | 49.48223 | 44.72034 | 23201 ft | 419 kts | 20° |
| 2026-05-07 17:59 | 49.50974 | 44.73564 | 23594 ft | 422 kts | 20° |
| 2026-05-07 17:59 | 49.53740 | 44.75101 | 23941 ft | 424 kts | 20° |
| 2026-05-07 17:59 | 49.56534 | 44.76654 | 24278 ft | 427 kts | 20° |
| 2026-05-07 17:59 | 49.59331 | 44.78211 | 24565 ft | 430 kts | 20° |
| 2026-05-07 18:00 | 49.62158 | 44.79789 | 24867 ft | 433 kts | 20° |
| 2026-05-07 18:00 | 49.65006 | 44.81380 | 25211 ft | 435 kts | 20° |
| 2026-05-07 18:00 | 49.67854 | 44.82975 | 25544 ft | 437 kts | 20° |
| 2026-05-07 18:00 | 49.70689 | 44.84564 | 25851 ft | 439 kts | 20° |
| 2026-05-07 18:01 | 49.73569 | 44.86180 | 26151 ft | 441 kts | 20° |
| 2026-05-07 18:01 | 49.76460 | 44.87803 | 26438 ft | 444 kts | 20° |
| 2026-05-07 18:01 | 49.79371 | 44.89438 | 26731 ft | 446 kts | 20° |
| 2026-05-07 18:01 | 49.82295 | 44.91081 | 27022 ft | 448 kts | 20° |
| 2026-05-07 18:02 | 49.88185 | 44.94395 | 27569 ft | 452 kts | 20° |
| 2026-05-07 18:02 | 49.91149 | 44.96065 | 27835 ft | 454 kts | 20° |
| 2026-05-07 18:02 | 49.94120 | 44.97741 | 28128 ft | 455 kts | 20° |
| 2026-05-07 18:03 | 49.97096 | 44.99422 | 28517 ft | 454 kts | 20° |
| 2026-05-07 18:03 | 50.00063 | 45.01098 | 28947 ft | 452 kts | 20° |
| 2026-05-07 18:03 | 50.02986 | 45.02752 | 29329 ft | 452 kts | 20° |
| 2026-05-07 18:03 | 50.05941 | 45.04426 | 29670 ft | 452 kts | 20° |
| 2026-05-07 18:04 | 50.08888 | 45.06096 | 30017 ft | 451 kts | 20° |
| 2026-05-07 18:04 | 50.11836 | 45.07771 | 30343 ft | 450 kts | 20° |
| 2026-05-07 18:04 | 50.14783 | 45.09448 | 30673 ft | 449 kts | 20° |
| 2026-05-07 18:04 | 50.17715 | 45.11121 | 30991 ft | 448 kts | 20° |
| 2026-05-07 18:05 | 50.20643 | 45.12795 | 31301 ft | 448 kts | 20° |
| 2026-05-07 18:05 | 50.23569 | 45.14472 | 31594 ft | 447 kts | 20° |
| 2026-05-07 18:05 | 50.26493 | 45.16152 | 31894 ft | 446 kts | 20° |
| 2026-05-07 18:05 | 50.29412 | 45.17834 | 32171 ft | 446 kts | 20° |
| 2026-05-07 18:06 | 50.32323 | 45.19517 | 32453 ft | 446 kts | 20° |
| 2026-05-07 18:06 | 50.35235 | 45.21205 | 32756 ft | 445 kts | 20° |
| 2026-05-07 18:06 | 50.38100 | 45.22872 | 32966 ft | 446 kts | 20° |
| 2026-05-07 18:07 | 50.43958 | 45.26292 | 32946 ft | 449 kts | 20° |
| 2026-05-07 18:07 | 50.49762 | 45.29695 | 32944 ft | 441 kts | 20° |
| 2026-05-07 18:08 | 50.55530 | 45.33088 | 32957 ft | 442 kts | 20° |
| 2026-05-07 18:08 | 50.61308 | 45.36502 | 32952 ft | 444 kts | 20° |
| 2026-05-07 18:09 | 50.66817 | 45.40747 | 32967 ft | 446 kts | 33° |
| 2026-05-07 18:09 | 50.71693 | 45.46805 | 32953 ft | 447 kts | 39° |
| 2026-05-07 18:10 | 50.76553 | 45.52949 | 32937 ft | 448 kts | 32° |
| 2026-05-07 18:10 | 50.82190 | 45.57059 | 32935 ft | 447 kts | 15° |
| 2026-05-07 18:11 | 50.88252 | 45.59186 | 32945 ft | 446 kts | 12° |
| 2026-05-07 18:11 | 50.94329 | 45.61269 | 32931 ft | 445 kts | 13° |
| 2026-05-07 18:12 | 51.00402 | 45.63450 | 32952 ft | 450 kts | 13° |
| 2026-05-07 18:12 | 51.06333 | 45.66604 | 32950 ft | 455 kts | 25° |
| 2026-05-07 18:13 | 51.12058 | 45.70981 | 32943 ft | 457 kts | 25° |
| 2026-05-07 18:13 | 51.17804 | 45.75398 | 32936 ft | 458 kts | 25° |
| 2026-05-07 18:14 | 51.23558 | 45.79759 | 32942 ft | 458 kts | 25° |
| 2026-05-07 18:14 | 51.29319 | 45.84105 | 32941 ft | 458 kts | 25° |
| 2026-05-07 18:15 | 51.35047 | 45.88436 | 32937 ft | 457 kts | 25° |
| 2026-05-07 18:15 | 51.40792 | 45.92795 | 32940 ft | 457 kts | 25° |
| 2026-05-07 18:16 | 51.46537 | 45.97168 | 32936 ft | 456 kts | 25° |
| 2026-05-07 18:16 | 51.52276 | 46.01547 | 32937 ft | 456 kts | 25° |
| 2026-05-07 18:17 | 51.58000 | 46.05957 | 32941 ft | 456 kts | 26° |
| 2026-05-07 18:17 | 51.63650 | 46.10605 | 32942 ft | 456 kts | 27° |
| 2026-05-07 18:18 | 51.69291 | 46.15306 | 32936 ft | 456 kts | 27° |
| 2026-05-07 18:18 | 51.74904 | 46.19956 | 32944 ft | 456 kts | 27° |
| 2026-05-07 18:19 | 51.80562 | 46.24642 | 32936 ft | 456 kts | 27° |
| 2026-05-07 18:19 | 51.86209 | 46.29334 | 32941 ft | 456 kts | 27° |
| 2026-05-07 18:20 | 51.91823 | 46.34014 | 32938 ft | 456 kts | 27° |
| 2026-05-07 18:20 | 51.97466 | 46.38730 | 32935 ft | 456 kts | 27° |
| 2026-05-07 18:21 | 52.03102 | 46.43453 | 32934 ft | 456 kts | 27° |
| 2026-05-07 18:21 | 52.08754 | 46.48205 | 32945 ft | 456 kts | 27° |
| 2026-05-07 18:22 | 52.14385 | 46.52953 | 32941 ft | 456 kts | 27° |
| 2026-05-07 18:22 | 52.20027 | 46.57722 | 32947 ft | 456 kts | 27° |
| 2026-05-07 18:23 | 52.25640 | 46.62483 | 32941 ft | 456 kts | 27° |
| 2026-05-07 18:23 | 52.31276 | 46.67279 | 32947 ft | 456 kts | 27° |
| 2026-05-07 18:24 | 52.36916 | 46.72091 | 32948 ft | 457 kts | 27° |
| 2026-05-07 18:24 | 52.42522 | 46.76889 | 32949 ft | 457 kts | 27° |
| 2026-05-07 18:25 | 52.48156 | 46.81724 | 32942 ft | 457 kts | 27° |
| 2026-05-07 18:25 | 52.53796 | 46.86577 | 32950 ft | 457 kts | 27° |
| 2026-05-07 18:26 | 52.59436 | 46.91443 | 32953 ft | 458 kts | 27° |
| 2026-05-07 18:26 | 52.65085 | 46.96332 | 32955 ft | 458 kts | 27° |
| 2026-05-07 18:27 | 52.70725 | 47.01228 | 32954 ft | 458 kts | 27° |
| 2026-05-07 18:27 | 52.76335 | 47.06113 | 32957 ft | 459 kts | 27° |
| 2026-05-07 18:28 | 52.81984 | 47.11045 | 32958 ft | 459 kts | 27° |
| 2026-05-07 18:28 | 52.87644 | 47.16002 | 32961 ft | 459 kts | 27° |
| 2026-05-07 18:29 | 52.93290 | 47.20964 | 32966 ft | 460 kts | 27° |
| 2026-05-07 18:29 | 52.98908 | 47.25917 | 32965 ft | 460 kts | 27° |
| 2026-05-07 18:30 | 53.04555 | 47.30910 | 32963 ft | 459 kts | 27° |
| 2026-05-07 18:30 | 53.10188 | 47.35906 | 32962 ft | 459 kts | 27° |
| 2026-05-07 18:31 | 53.15816 | 47.40910 | 32960 ft | 458 kts | 27° |
| 2026-05-07 18:31 | 53.21458 | 47.45941 | 32964 ft | 458 kts | 28° |
| 2026-05-07 18:32 | 53.27043 | 47.50936 | 32964 ft | 458 kts | 28° |
| 2026-05-07 18:32 | 53.32672 | 47.55985 | 32967 ft | 458 kts | 28° |
| 2026-05-07 18:33 | 53.38286 | 47.61037 | 32963 ft | 458 kts | 28° |
| 2026-05-07 18:33 | 53.42955 | 47.65251 | 32974 ft | 458 kts | 28° |
| 2026-05-07 18:34 | 53.48599 | 47.70277 | 32963 ft | 458 kts | 24° |
| 2026-05-07 18:34 | 53.54510 | 47.74257 | 32970 ft | 458 kts | 20° |
| 2026-05-07 18:35 | 53.60434 | 47.78009 | 32971 ft | 456 kts | 21° |
| 2026-05-07 18:35 | 53.66337 | 47.81901 | 32966 ft | 455 kts | 21° |
| 2026-05-07 18:36 | 53.72297 | 47.85539 | 32959 ft | 455 kts | 14° |
| 2026-05-07 18:36 | 53.78464 | 47.87867 | 32974 ft | 454 kts | 13° |
| 2026-05-07 18:37 | 53.84557 | 47.90665 | 32965 ft | 454 kts | 22° |
| 2026-05-07 18:37 | 53.90318 | 47.95041 | 32968 ft | 454 kts | 25° |
| 2026-05-07 18:38 | 53.96057 | 47.99513 | 32969 ft | 454 kts | 24° |
| 2026-05-07 18:38 | 54.01741 | 48.03854 | 32935 ft | 439 kts | 24° |
| 2026-05-07 18:38 | 54.04484 | 48.05933 | 32954 ft | 423 kts | 24° |
| 2026-05-07 18:39 | 54.07134 | 48.07940 | 32937 ft | 409 kts | 24° |
| 2026-05-07 18:39 | 54.09683 | 48.09873 | 32951 ft | 396 kts | 24° |
| 2026-05-07 18:39 | 54.12197 | 48.11783 | 32963 ft | 394 kts | 24° |
| 2026-05-07 18:40 | 54.17227 | 48.15613 | 32981 ft | 402 kts | 24° |
| 2026-05-07 18:40 | 54.19805 | 48.17580 | 32733 ft | 410 kts | 24° |
| 2026-05-07 18:40 | 54.22421 | 48.19579 | 32222 ft | 412 kts | 24° |
| 2026-05-07 18:40 | 54.25039 | 48.21582 | 31604 ft | 411 kts | 24° |
| 2026-05-07 18:41 | 54.27626 | 48.23694 | 30964 ft | 413 kts | 27° |
| 2026-05-07 18:41 | 54.30142 | 48.26024 | 30516 ft | 410 kts | 28° |
| 2026-05-07 18:41 | 54.32626 | 48.28432 | 30036 ft | 407 kts | 29° |
| 2026-05-07 18:41 | 54.35070 | 48.30830 | 29182 ft | 404 kts | 29° |
| 2026-05-07 18:42 | 54.37501 | 48.33211 | 28527 ft | 397 kts | 29° |
| 2026-05-07 18:42 | 54.39888 | 48.35539 | 28034 ft | 398 kts | 29° |
| 2026-05-07 18:42 | 54.42312 | 48.37890 | 27592 ft | 410 kts | 29° |
| 2026-05-07 18:42 | 54.44832 | 48.40328 | 27099 ft | 420 kts | 29° |
| 2026-05-07 18:43 | 54.47395 | 48.42805 | 26612 ft | 424 kts | 29° |
| 2026-05-07 18:43 | 54.49969 | 48.45294 | 26132 ft | 422 kts | 29° |
| 2026-05-07 18:43 | 54.52526 | 48.47769 | 25652 ft | 420 kts | 29° |
| 2026-05-07 18:43 | 54.55067 | 48.50232 | 25191 ft | 419 kts | 29° |
| 2026-05-07 18:44 | 54.57614 | 48.52705 | 25017 ft | 420 kts | 29° |
| 2026-05-07 18:44 | 54.60164 | 48.55185 | 24974 ft | 420 kts | 29° |
| 2026-05-07 18:44 | 54.62707 | 48.57661 | 24967 ft | 419 kts | 29° |
| 2026-05-07 18:44 | 54.65241 | 48.60132 | 24960 ft | 418 kts | 29° |
| 2026-05-07 18:45 | 54.67749 | 48.62581 | 24959 ft | 419 kts | 29° |
| 2026-05-07 18:45 | 54.70302 | 48.65078 | 24972 ft | 425 kts | 29° |
| 2026-05-07 18:45 | 54.72886 | 48.67609 | 24960 ft | 425 kts | 29° |
| 2026-05-07 18:45 | 54.75449 | 48.70124 | 24952 ft | 420 kts | 29° |
| 2026-05-07 18:46 | 54.77982 | 48.72612 | 24955 ft | 418 kts | 29° |
| 2026-05-07 18:46 | 54.80518 | 48.75106 | 24964 ft | 419 kts | 29° |
| 2026-05-07 18:46 | 54.83006 | 48.77557 | 24946 ft | 404 kts | 29° |
| 2026-05-07 18:46 | 54.85404 | 48.79926 | 24940 ft | 389 kts | 29° |
| 2026-05-07 18:47 | 54.87685 | 48.82184 | 24943 ft | 374 kts | 29° |
| 2026-05-07 18:47 | 54.89928 | 48.84409 | 24940 ft | 360 kts | 29° |
| 2026-05-07 18:47 | 54.92038 | 48.86503 | 24940 ft | 347 kts | 29° |
| 2026-05-07 18:47 | 54.94091 | 48.88544 | 24943 ft | 333 kts | 29° |
| 2026-05-07 18:48 | 54.96074 | 48.90517 | 24939 ft | 321 kts | 29° |
| 2026-05-07 18:48 | 54.97980 | 48.92415 | 24948 ft | 312 kts | 29° |
| 2026-05-07 18:48 | 54.99860 | 48.94289 | 24955 ft | 312 kts | 28° |
| 2026-05-07 18:48 | 55.01762 | 48.96186 | 24975 ft | 318 kts | 29° |
| 2026-05-07 18:49 | 55.03695 | 48.98117 | 24973 ft | 322 kts | 29° |
| 2026-05-07 18:49 | 55.05638 | 49.00061 | 24961 ft | 319 kts | 29° |
| 2026-05-07 18:49 | 55.07532 | 49.01958 | 24944 ft | 310 kts | 29° |
| 2026-05-07 18:49 | 55.09371 | 49.03803 | 24939 ft | 299 kts | 29° |
| 2026-05-07 18:50 | 55.11143 | 49.05581 | 24941 ft | 288 kts | 29° |
| 2026-05-07 18:50 | 55.12876 | 49.07321 | 24954 ft | 286 kts | 29° |
| 2026-05-07 18:50 | 55.14579 | 49.09033 | 24971 ft | 289 kts | 29° |
| 2026-05-07 18:50 | 55.16362 | 49.10810 | 24986 ft | 300 kts | 26° |
| 2026-05-07 18:51 | 55.18376 | 49.11971 | 24980 ft | 310 kts | 9° |
| 2026-05-07 18:51 | 55.20546 | 49.12597 | 24972 ft | 318 kts | 8° |
| 2026-05-07 18:51 | 55.22720 | 49.13188 | 24918 ft | 312 kts | 8° |
| 2026-05-07 18:51 | 55.24850 | 49.13777 | 24729 ft | 308 kts | 8° |
| 2026-05-07 18:52 | 55.26932 | 49.14370 | 24459 ft | 305 kts | 8° |
| 2026-05-07 18:52 | 55.29030 | 49.14395 | 24171 ft | 300 kts | 345° |
| 2026-05-07 18:52 | 55.30902 | 49.12915 | 23843 ft | 296 kts | 321° |
| 2026-05-07 18:52 | 55.32437 | 49.10519 | 23550 ft | 294 kts | 315° |
| 2026-05-07 18:53 | 55.33882 | 49.07990 | 23192 ft | 293 kts | 314° |
| 2026-05-07 18:53 | 55.35314 | 49.05438 | 22873 ft | 292 kts | 314° |
| 2026-05-07 18:53 | 55.36731 | 49.02899 | 22570 ft | 289 kts | 314° |
| 2026-05-07 18:53 | 55.38135 | 49.00375 | 22261 ft | 288 kts | 314° |
| 2026-05-07 18:54 | 55.39523 | 48.97877 | 21965 ft | 286 kts | 314° |
| 2026-05-07 18:54 | 55.40891 | 48.95412 | 21649 ft | 284 kts | 314° |
| 2026-05-07 18:54 | 55.42274 | 48.92931 | 21418 ft | 280 kts | 313° |
| 2026-05-07 18:54 | 55.43636 | 48.90512 | 21163 ft | 277 kts | 314° |
| 2026-05-07 18:55 | 55.44984 | 48.88074 | 20832 ft | 276 kts | 308° |
| 2026-05-07 18:55 | 55.46123 | 48.85359 | 20526 ft | 275 kts | 304° |
| 2026-05-07 18:55 | 55.47211 | 48.82602 | 20247 ft | 273 kts | 304° |
| 2026-05-07 18:55 | 55.48286 | 48.79859 | 19968 ft | 272 kts | 304° |
| 2026-05-07 18:56 | 55.49355 | 48.77121 | 19687 ft | 270 kts | 304° |
| 2026-05-07 18:56 | 55.50407 | 48.74423 | 19422 ft | 269 kts | 304° |
| 2026-05-07 18:56 | 55.51475 | 48.71681 | 19145 ft | 267 kts | 304° |
| 2026-05-07 18:56 | 55.52512 | 48.69017 | 18875 ft | 266 kts | 304° |
| 2026-05-07 18:57 | 55.53557 | 48.66331 | 18612 ft | 265 kts | 304° |
| 2026-05-07 18:57 | 55.54596 | 48.63645 | 18282 ft | 266 kts | 304° |
| 2026-05-07 18:57 | 55.55633 | 48.60955 | 17994 ft | 264 kts | 304° |
| 2026-05-07 18:57 | 55.56664 | 48.58274 | 17711 ft | 262 kts | 304° |
| 2026-05-07 18:58 | 55.57685 | 48.55610 | 17404 ft | 261 kts | 304° |
| 2026-05-07 18:58 | 55.58701 | 48.52957 | 17103 ft | 260 kts | 303° |
| 2026-05-07 18:58 | 55.59781 | 48.50392 | 16783 ft | 260 kts | 316° |
| 2026-05-07 18:58 | 55.61330 | 48.48794 | 16454 ft | 262 kts | 345° |
| 2026-05-07 18:59 | 55.63154 | 48.48729 | 16144 ft | 265 kts | 12° |
| 2026-05-07 18:59 | 55.64852 | 48.49898 | 15906 ft | 265 kts | 22° |
| 2026-05-07 18:59 | 55.66511 | 48.51333 | 15612 ft | 265 kts | 23° |
| 2026-05-07 18:59 | 55.68159 | 48.52801 | 15323 ft | 265 kts | 24° |
| 2026-05-07 19:00 | 55.69799 | 48.54274 | 15063 ft | 263 kts | 24° |
| 2026-05-07 19:00 | 55.71417 | 48.55738 | 14773 ft | 259 kts | 24° |
| 2026-05-07 19:00 | 55.73021 | 48.57195 | 14372 ft | 259 kts | 24° |
| 2026-05-07 19:00 | 55.74589 | 48.58773 | 13967 ft | 261 kts | 38° |
| 2026-05-07 19:01 | 55.75587 | 48.61467 | 13467 ft | 269 kts | 74° |
| 2026-05-07 19:01 | 55.75558 | 48.64809 | 12830 ft | 278 kts | 105° |
| 2026-05-07 19:01 | 55.75062 | 48.68094 | 12392 ft | 277 kts | 102° |
| 2026-05-07 19:01 | 55.74643 | 48.71424 | 11996 ft | 275 kts | 101° |
| 2026-05-07 19:02 | 55.74247 | 48.74733 | 11606 ft | 273 kts | 100° |
| 2026-05-07 19:02 | 55.73859 | 48.78013 | 11236 ft | 271 kts | 100° |
| 2026-05-07 19:02 | 55.73476 | 48.81274 | 10875 ft | 268 kts | 100° |
| 2026-05-07 19:02 | 55.73092 | 48.84473 | 10469 ft | 263 kts | 101° |
| 2026-05-07 19:03 | 55.72696 | 48.87636 | 10012 ft | 259 kts | 101° |
| 2026-05-07 19:03 | 55.72309 | 48.90654 | 9757 ft | 244 kts | 101° |
| 2026-05-07 19:03 | 55.71932 | 48.93565 | 9160 ft | 242 kts | 101° |
| 2026-05-07 19:03 | 55.71554 | 48.96484 | 8515 ft | 243 kts | 101° |
| 2026-05-07 19:04 | 55.71179 | 48.99387 | 7931 ft | 240 kts | 101° |
| 2026-05-07 19:04 | 55.70809 | 49.02272 | 7357 ft | 239 kts | 101° |
| 2026-05-07 19:04 | 55.70444 | 49.05132 | 6805 ft | 237 kts | 101° |
| 2026-05-07 19:04 | 55.70084 | 49.07973 | 6273 ft | 235 kts | 101° |
| 2026-05-07 19:05 | 55.69724 | 49.10828 | 6106 ft | 246 kts | 101° |
| 2026-05-07 19:05 | 55.69349 | 49.13812 | 5991 ft | 252 kts | 101° |
| 2026-05-07 19:05 | 55.68968 | 49.16824 | 5952 ft | 248 kts | 101° |
| 2026-05-07 19:05 | 55.68541 | 49.19768 | 5940 ft | 247 kts | 111° |
| 2026-05-07 19:06 | 55.67510 | 49.22191 | 5966 ft | 250 kts | 143° |
| 2026-05-07 19:06 | 55.64207 | 49.22991 | 5998 ft | 250 kts | 205° |
| 2026-05-07 19:06 | 55.62848 | 49.21151 | 5998 ft | 247 kts | 236° |
| 2026-05-07 19:07 | 55.62109 | 49.18444 | 6009 ft | 245 kts | 252° |
| 2026-05-07 19:07 | 55.61564 | 49.15602 | 5981 ft | 242 kts | 253° |
| 2026-05-07 19:07 | 55.61052 | 49.12824 | 5798 ft | 239 kts | 253° |
| 2026-05-07 19:07 | 55.60542 | 49.10024 | 5454 ft | 238 kts | 253° |
| 2026-05-07 19:08 | 55.60039 | 49.07234 | 5014 ft | 239 kts | 253° |
| 2026-05-07 19:08 | 55.59658 | 49.04384 | 4619 ft | 237 kts | 271° |
| 2026-05-07 19:08 | 55.59994 | 49.01570 | 4240 ft | 234 kts | 291° |
| 2026-05-07 19:08 | 55.60607 | 48.98909 | 4021 ft | 235 kts | 293° |
| 2026-05-07 19:09 | 55.61259 | 48.96220 | 4003 ft | 239 kts | 294° |
| 2026-05-07 19:09 | 55.61916 | 48.93541 | 3985 ft | 236 kts | 294° |
| 2026-05-07 19:09 | 55.62560 | 48.90918 | 3967 ft | 228 kts | 294° |
| 2026-05-07 19:09 | 55.63218 | 48.88459 | 3985 ft | 220 kts | 306° |
| 2026-05-07 19:10 | 55.64412 | 48.86985 | 3987 ft | 210 kts | 350° |
| 2026-05-07 19:10 | 55.65843 | 48.87288 | 3997 ft | 212 kts | 21° |
| 2026-05-07 19:10 | 55.67112 | 48.88651 | 3965 ft | 214 kts | 45° |
| 2026-05-07 19:10 | 55.67962 | 48.90788 | 3800 ft | 211 kts | 59° |
| 2026-05-07 19:11 | 55.68712 | 48.93022 | 3412 ft | 212 kts | 60° |
| 2026-05-07 19:11 | 55.69453 | 48.95229 | 3257 ft | 201 kts | 60° |
| 2026-05-07 19:11 | 55.70149 | 48.97299 | 3145 ft | 189 kts | 60° |
| 2026-05-07 19:11 | 55.70799 | 48.99251 | 3032 ft | 177 kts | 64° |
| 2026-05-07 19:12 | 55.70959 | 49.01288 | 2767 ft | 167 kts | 115° |
| 2026-05-07 19:12 | 55.70274 | 49.02947 | 2750 ft | 172 kts | 127° |
| 2026-05-07 19:12 | 55.69665 | 49.04736 | 2711 ft | 164 kts | 123° |
| 2026-05-07 19:12 | 55.69031 | 49.06377 | 2690 ft | 160 kts | 126° |
| 2026-05-07 19:13 | 55.68395 | 49.07974 | 2662 ft | 158 kts | 126° |
| 2026-05-07 19:13 | 55.67762 | 49.09583 | 2502 ft | 160 kts | 126° |
| 2026-05-07 19:13 | 55.67129 | 49.11199 | 2310 ft | 158 kts | 126° |
| 2026-05-07 19:13 | 55.66505 | 49.12790 | 2047 ft | 156 kts | 125° |
| 2026-05-07 19:14 | 55.65911 | 49.14325 | 1815 ft | 148 kts | 125° |
| 2026-05-07 19:14 | 55.65319 | 49.15824 | 1527 ft | 148 kts | 126° |
| 2026-05-07 19:14 | 55.64724 | 49.17305 | 1529 ft | 148 kts | 124° |
| 2026-05-07 19:14 | 55.64152 | 49.18792 | 1478 ft | 148 kts | 124° |
| 2026-05-07 19:15 | 55.63598 | 49.20296 | 1823 ft | 147 kts | 124° |
| 2026-05-07 19:15 | 55.63037 | 49.21737 | 2474 ft | 138 kts | 127° |
| 2026-05-07 19:15 | 55.62398 | 49.23256 | 2497 ft | 168 kts | 128° |
| 2026-05-07 19:15 | 55.61669 | 49.24904 | 2265 ft | 171 kts | 129° |
| 2026-05-07 19:16 | 55.60935 | 49.26551 | 2002 ft | 170 kts | 129° |
| 2026-05-07 19:16 | 55.60192 | 49.28202 | 1891 ft | 189 kts | 129° |
| 2026-05-07 19:16 | 55.59265 | 49.30243 | 2034 ft | 230 kts | 129° |
| 2026-05-07 19:16 | 55.58283 | 49.32527 | 2883 ft | 231 kts | 124° |
| 2026-05-07 19:17 | 55.57370 | 49.34892 | 3601 ft | 235 kts | 131° |
| 2026-05-07 19:17 | 55.56009 | 49.36314 | 3944 ft | 233 kts | 171° |
| 2026-05-07 19:17 | 55.54382 | 49.35920 | 3944 ft | 244 kts | 209° |
| 2026-05-07 19:17 | 55.53222 | 49.33842 | 3971 ft | 244 kts | 245° |
| 2026-05-07 19:18 | 55.52859 | 49.30977 | 3976 ft | 239 kts | 273° |
| 2026-05-07 19:18 | 55.53159 | 49.28116 | 3977 ft | 237 kts | 288° |
| 2026-05-07 19:18 | 55.53661 | 49.25352 | 3965 ft | 237 kts | 289° |
| 2026-05-07 19:18 | 55.54187 | 49.22588 | 3970 ft | 236 kts | 289° |
| 2026-05-07 19:19 | 55.54703 | 49.19836 | 3995 ft | 236 kts | 288° |
| 2026-05-07 19:19 | 55.55209 | 49.17087 | 3996 ft | 235 kts | 288° |
| 2026-05-07 19:19 | 55.55704 | 49.14343 | 3995 ft | 234 kts | 288° |
| 2026-05-07 19:19 | 55.56196 | 49.11597 | 3998 ft | 233 kts | 288° |
| 2026-05-07 19:20 | 55.56675 | 49.08895 | 3996 ft | 233 kts | 288° |
| 2026-05-07 19:20 | 55.57156 | 49.06154 | 3990 ft | 233 kts | 288° |
| 2026-05-07 19:20 | 55.57838 | 49.03578 | 3994 ft | 232 kts | 306° |
| 2026-05-07 19:20 | 55.58784 | 49.01273 | 3995 ft | 232 kts | 305° |
| 2026-05-07 19:21 | 55.59711 | 48.98930 | 3994 ft | 233 kts | 305° |
| 2026-05-07 19:21 | 55.60322 | 48.97364 | 3994 ft | 233 kts | 304° |
| 2026-05-07 19:21 | 55.61278 | 48.95032 | 3978 ft | 232 kts | 315° |
| 2026-05-07 19:21 | 55.62662 | 48.93837 | 4006 ft | 221 kts | 357° |
| 2026-05-07 19:22 | 55.64139 | 48.94362 | 4014 ft | 218 kts | 19° |
| 2026-05-07 19:22 | 55.65546 | 48.95469 | 4006 ft | 222 kts | 26° |
| 2026-05-07 19:22 | 55.66920 | 48.96686 | 4002 ft | 225 kts | 26° |
| 2026-05-07 19:22 | 55.68314 | 48.97917 | 3924 ft | 225 kts | 27° |
| 2026-05-07 19:23 | 55.69531 | 48.99654 | 3588 ft | 228 kts | 57° |
| 2026-05-07 19:23 | 55.69856 | 49.02309 | 3351 ft | 221 kts | 100° |
| 2026-05-07 19:23 | 55.69315 | 49.04827 | 3094 ft | 215 kts | 117° |
| 2026-05-07 19:23 | 55.68639 | 49.07107 | 2807 ft | 202 kts | 120° |
| 2026-05-07 19:24 | 55.67930 | 49.09137 | 2556 ft | 190 kts | 125° |
| 2026-05-07 19:24 | 55.67204 | 49.11015 | 2369 ft | 182 kts | 126° |
| 2026-05-07 19:24 | 55.66489 | 49.12837 | 2085 ft | 173 kts | 126° |
| 2026-05-07 19:24 | 55.65823 | 49.14494 | 1863 ft | 157 kts | 126° |
| 2026-05-07 19:25 | 55.65223 | 49.16015 | 1597 ft | 146 kts | 126° |
| 2026-05-07 19:25 | 55.64655 | 49.17466 | 1419 ft | 142 kts | 123° |
| 2026-05-07 19:25 | 55.64091 | 49.18949 | 1276 ft | 148 kts | 125° |
| 2026-05-07 19:25 | 55.63502 | 49.20459 | 1112 ft | 150 kts | 124° |
| 2026-05-07 19:26 | 55.62914 | 49.21985 | 889 ft | 150 kts | 123° |
| 2026-05-07 19:26 | 55.62328 | 49.23498 | 724 ft | 148 kts | 122° |
| 2026-05-07 19:26 | 55.61726 | 49.25042 | 460 ft | 154 kts | 124° |
| 2026-05-07 19:26 | 55.61152 | 49.26518 | 412 ft | 130 kts | 124° |
| 2026-05-07 19:27 | 55.60759 | 49.27535 | 411 ft | 87 kts | 124° |
| 2026-05-07 19:27 | 55.60454 | 49.28319 | 410 ft | 67 kts | 124° |
| 2026-05-07 19:27 | 55.60465 | 49.28665 | 415 ft | 3 kts | 30° |
| 2026-05-07 19:27 | 55.60480 | 49.28684 | 415 ft | 5 kts | 34° |
| 2026-05-07 19:28 | 55.60518 | 49.28730 | 414 ft | 0 kts | 34° |
| 2026-05-07 19:29 | 55.60523 | 49.28738 | 415 ft | 2 kts | 45° |
| 2026-05-07 19:29 | 55.60520 | 49.28798 | 415 ft | 9 kts | 113° |
| 2026-05-07 19:29 | 55.60468 | 49.28935 | 415 ft | 16 kts | 124° |
| 2026-05-07 19:29 | 55.60398 | 49.29114 | 411 ft | 19 kts | 124° |
| 2026-05-07 19:30 | 55.60318 | 49.29319 | 412 ft | 21 kts | 125° |
| 2026-05-07 19:30 | 55.60237 | 49.29528 | 412 ft | 20 kts | 124° |
| 2026-05-07 19:30 | 55.60153 | 49.29746 | 409 ft | 22 kts | 124° |
| 2026-05-07 19:30 | 55.60154 | 49.29958 | 411 ft | 22 kts | 2° |
| 2026-05-07 19:31 | 55.60296 | 49.29878 | 410 ft | 21 kts | 356° |
| 2026-05-07 19:31 | 55.60428 | 49.29967 | 415 ft | 21 kts | 35° |
| 2026-05-07 19:31 | 55.60548 | 49.30090 | 408 ft | 20 kts | 1° |
| 2026-05-07 19:31 | 55.60638 | 49.29973 | 412 ft | 12 kts | 353° |
| 2026-05-07 19:32 | 55.60686 | 49.30010 | 415 ft | 2 kts | 35° |
| 2026-05-07 19:32 | 55.60693 | 49.30019 | 415 ft | 0 kts | 35° |